sensor_id;sensor_type;location;lat;lon;timestamp;P1;durP1;ratioP1;P2;durP2;ratioP2
12290;SDS011;6208;48.956;9.076;2022-11-27T07:05:34;5.53;;;5.00;;
12290;SDS011;6208;48.956;9.076;2022-11-27T07:08:20;8.43;;;7.28;;
12290;SDS011;6208;48.956;9.076;2022-11-27T07:11:27;8.65;;;7.47;;
12290;SDS011;6208;48.956;9.076;2022-11-27T07:14:10;8.93;;;7.97;;
12290;SDS011;6208;48.956;9.076;2022-11-27T07:16:54;14.95;;;10.88;;
12290;SDS011;6208;48.956;9.076;2022-11-27T07:19:38;30.58;;;17.13;;
12290;SDS011;6208;48.956;9.076;2022-11-27T07:22:22;28.20;;;21.48;;
12290;SDS011;6208;48.956;9.076;2022-11-27T07:25:06;33.15;;;24.77;;
12290;SDS011;6208;48.956;9.076;2022-11-27T07:27:51;32.60;;;26.95;;
12290;SDS011;6208;48.956;9.076;2022-11-27T07:30:35;38.22;;;30.58;;
12290;SDS011;6208;48.956;9.076;2022-11-27T07:33:20;52.85;;;37.20;;
12290;SDS011;6208;48.956;9.076;2022-11-27T07:36:06;66.47;;;47.05;;
12290;SDS011;6208;48.956;9.076;2022-11-27T07:38:54;71.40;;;48.30;;
12290;SDS011;6208;48.956;9.076;2022-11-27T07:41:38;68.72;;;47.58;;
12290;SDS011;6208;48.956;9.076;2022-11-27T07:44:22;69.32;;;50.08;;
12290;SDS011;6208;48.956;9.076;2022-11-27T07:47:06;71.65;;;50.58;;
12290;SDS011;6208;48.956;9.076;2022-11-27T07:49:51;67.57;;;46.42;;
12290;SDS011;6208;48.956;9.076;2022-11-27T07:52:37;76.82;;;48.13;;
12290;SDS011;6208;48.956;9.076;2022-11-27T07:55:22;20.63;;;14.60;;
12290;SDS011;6208;48.956;9.076;2022-11-27T07:58:06;10.55;;;8.27;;
12290;SDS011;6208;48.956;9.076;2022-11-27T08:00:51;15.77;;;12.70;;
12290;SDS011;6208;48.956;9.076;2022-11-27T08:03:35;21.67;;;15.40;;
12290;SDS011;6208;48.956;9.076;2022-11-27T08:06:22;20.10;;;16.77;;
12290;SDS011;6208;48.956;9.076;2022-11-27T08:09:07;19.33;;;17.08;;
12290;SDS011;6208;48.956;9.076;2022-11-27T08:11:51;27.10;;;17.38;;
12290;SDS011;6208;48.956;9.076;2022-11-27T08:14:36;30.85;;;17.90;;
12290;SDS011;6208;48.956;9.076;2022-11-27T08:17:20;35.47;;;18.80;;
12290;SDS011;6208;48.956;9.076;2022-11-27T08:20:04;31.30;;;18.17;;
12290;SDS011;6208;48.956;9.076;2022-11-27T08:22:49;36.58;;;17.75;;
12290;SDS011;6208;48.956;9.076;2022-11-27T08:25:36;32.08;;;18.38;;
12290;SDS011;6208;48.956;9.076;2022-11-27T08:28:20;28.98;;;17.63;;
12290;SDS011;6208;48.956;9.076;2022-11-27T08:31:05;32.35;;;17.75;;
12290;SDS011;6208;48.956;9.076;2022-11-27T08:33:50;25.10;;;16.05;;
12290;SDS011;6208;48.956;9.076;2022-11-27T08:36:34;20.05;;;15.32;;
12290;SDS011;6208;48.956;9.076;2022-11-27T08:39:18;23.58;;;16.23;;
12290;SDS011;6208;48.956;9.076;2022-11-27T08:42:02;22.60;;;15.73;;
12290;SDS011;6208;48.956;9.076;2022-11-27T08:44:46;23.00;;;15.60;;
12290;SDS011;6208;48.956;9.076;2022-11-27T08:47:30;21.02;;;15.55;;
12290;SDS011;6208;48.956;9.076;2022-11-27T08:50:14;22.58;;;15.95;;
12290;SDS011;6208;48.956;9.076;2022-11-27T08:52:59;21.83;;;14.38;;
12290;SDS011;6208;48.956;9.076;2022-11-27T08:55:43;17.95;;;14.63;;
12290;SDS011;6208;48.956;9.076;2022-11-27T08:58:28;22.42;;;13.50;;
12290;SDS011;6208;48.956;9.076;2022-11-27T09:01:16;21.27;;;12.95;;
12290;SDS011;6208;48.956;9.076;2022-11-27T09:04:02;22.48;;;14.13;;
12290;SDS011;6208;48.956;9.076;2022-11-27T09:06:46;19.58;;;13.57;;
12290;SDS011;6208;48.956;9.076;2022-11-27T09:09:31;17.33;;;12.70;;
12290;SDS011;6208;48.956;9.076;2022-11-27T09:12:15;19.55;;;13.50;;
12290;SDS011;6208;48.956;9.076;2022-11-27T09:14:59;20.85;;;12.82;;
12290;SDS011;6208;48.956;9.076;2022-11-27T09:17:43;23.83;;;13.13;;
12290;SDS011;6208;48.956;9.076;2022-11-27T09:20:28;14.70;;;11.82;;
12290;SDS011;6208;48.956;9.076;2022-11-27T09:23:12;22.30;;;13.10;;
12290;SDS011;6208;48.956;9.076;2022-11-27T09:25:57;20.10;;;12.32;;
12290;SDS011;6208;48.956;9.076;2022-11-27T09:28:45;18.60;;;12.48;;
12290;SDS011;6208;48.956;9.076;2022-11-27T09:31:29;23.65;;;13.02;;
12290;SDS011;6208;48.956;9.076;2022-11-27T09:34:13;24.20;;;12.80;;
12290;SDS011;6208;48.956;9.076;2022-11-27T09:36:57;20.95;;;11.63;;
12290;SDS011;6208;48.956;9.076;2022-11-27T09:39:42;27.23;;;11.95;;
12290;SDS011;6208;48.956;9.076;2022-11-27T09:45:25;22.08;;;11.05;;
12290;SDS011;6208;48.956;9.076;2022-11-27T09:48:11;18.35;;;11.35;;
12290;SDS011;6208;48.956;9.076;2022-11-27T09:51:04;18.48;;;11.18;;
12290;SDS011;6208;48.956;9.076;2022-11-27T09:53:58;17.58;;;11.57;;
12290;SDS011;6208;48.956;9.076;2022-11-27T09:56:58;18.92;;;10.60;;
12290;SDS011;6208;48.956;9.076;2022-11-27T09:59:49;17.15;;;10.48;;
12290;SDS011;6208;48.956;9.076;2022-11-27T10:02:36;15.20;;;10.27;;
12290;SDS011;6208;48.956;9.076;2022-11-27T10:05:28;14.82;;;10.52;;
12290;SDS011;6208;48.956;9.076;2022-11-27T10:08:37;13.20;;;10.45;;
12290;SDS011;6208;48.956;9.076;2022-11-27T10:17:47;14.10;;;10.07;;
12290;SDS011;6208;48.956;9.076;2022-11-27T10:20:44;15.98;;;9.88;;
12290;SDS011;6208;48.956;9.076;2022-11-27T10:26:40;12.05;;;9.80;;
12290;SDS011;6208;48.956;9.076;2022-11-27T10:29:38;15.18;;;9.60;;
12290;SDS011;6208;48.956;9.076;2022-11-27T10:32:29;17.85;;;8.45;;
12290;SDS011;6208;48.956;9.076;2022-11-27T10:35:23;19.85;;;9.07;;
12290;SDS011;6208;48.956;9.076;2022-11-27T10:38:10;14.43;;;8.77;;
12290;SDS011;6208;48.956;9.076;2022-11-27T10:44:37;11.10;;;8.35;;
12290;SDS011;6208;48.956;9.076;2022-11-27T10:47:25;12.85;;;8.23;;
12290;SDS011;6208;48.956;9.076;2022-11-27T10:50:14;10.77;;;7.95;;
12290;SDS011;6208;48.956;9.076;2022-11-27T10:53:02;13.55;;;7.80;;
12290;SDS011;6208;48.956;9.076;2022-11-27T10:59:26;13.77;;;8.45;;
12290;SDS011;6208;48.956;9.076;2022-11-27T11:02:30;14.00;;;8.02;;
12290;SDS011;6208;48.956;9.076;2022-11-27T11:05:20;10.40;;;6.90;;
12290;SDS011;6208;48.956;9.076;2022-11-27T11:08:15;11.65;;;7.13;;
12290;SDS011;6208;48.956;9.076;2022-11-27T11:11:03;14.50;;;7.88;;
12290;SDS011;6208;48.956;9.076;2022-11-27T11:13:49;8.73;;;7.38;;
12290;SDS011;6208;48.956;9.076;2022-11-27T11:16:40;12.15;;;7.18;;
12290;SDS011;6208;48.956;9.076;2022-11-27T11:19:32;9.05;;;5.97;;
12290;SDS011;6208;48.956;9.076;2022-11-27T11:22:21;8.32;;;7.22;;
12290;SDS011;6208;48.956;9.076;2022-11-27T11:25:12;11.07;;;6.47;;
12290;SDS011;6208;48.956;9.076;2022-11-27T11:28:00;13.27;;;7.10;;
12290;SDS011;6208;48.956;9.076;2022-11-27T11:31:19;13.13;;;6.55;;
12290;SDS011;6208;48.956;9.076;2022-11-27T11:33:59;13.75;;;6.22;;
12290;SDS011;6208;48.956;9.076;2022-11-27T11:37:00;7.07;;;6.38;;
12290;SDS011;6208;48.956;9.076;2022-11-27T11:39:51;6.45;;;5.82;;
12290;SDS011;6208;48.956;9.076;2022-11-27T11:42:36;6.82;;;5.57;;
12290;SDS011;6208;48.956;9.076;2022-11-27T11:45:21;6.90;;;6.00;;
12290;SDS011;6208;48.956;9.076;2022-11-27T11:48:26;6.50;;;5.75;;
12290;SDS011;6208;48.956;9.076;2022-11-27T11:51:14;13.60;;;6.50;;
12290;SDS011;6208;48.956;9.076;2022-11-27T11:54:10;7.45;;;6.07;;
12290;SDS011;6208;48.956;9.076;2022-11-27T11:57:33;8.80;;;5.82;;
12290;SDS011;6208;48.956;9.076;2022-11-27T12:00:37;5.95;;;5.32;;
12290;SDS011;6208;48.956;9.076;2022-11-27T12:16:08;6.50;;;5.10;;
12290;SDS011;6208;48.956;9.076;2022-11-27T12:25:47;5.72;;;4.68;;
12290;SDS011;6208;48.956;9.076;2022-11-27T12:28:40;6.60;;;5.15;;
12290;SDS011;6208;48.956;9.076;2022-11-27T12:31:48;8.55;;;5.65;;
12290;SDS011;6208;48.956;9.076;2022-11-27T12:45:31;6.55;;;5.18;;
12290;SDS011;6208;48.956;9.076;2022-11-27T12:48:15;5.13;;;4.70;;
12290;SDS011;6208;48.956;9.076;2022-11-27T12:51:11;5.35;;;4.60;;
12290;SDS011;6208;48.956;9.076;2022-11-27T12:54:03;5.00;;;4.47;;
12290;SDS011;6208;48.956;9.076;2022-11-27T12:56:54;6.00;;;4.82;;
12290;SDS011;6208;48.956;9.076;2022-11-27T12:59:42;4.93;;;4.43;;
12290;SDS011;6208;48.956;9.076;2022-11-27T13:05:48;5.45;;;4.63;;
12290;SDS011;6208;48.956;9.076;2022-11-27T13:11:23;4.93;;;4.40;;
12290;SDS011;6208;48.956;9.076;2022-11-27T13:14:17;4.95;;;4.28;;
12290;SDS011;6208;48.956;9.076;2022-11-27T13:17:05;5.45;;;4.35;;
12290;SDS011;6208;48.956;9.076;2022-11-27T13:19:58;5.60;;;4.05;;
12290;SDS011;6208;48.956;9.076;2022-11-27T13:22:44;6.22;;;4.50;;
12290;SDS011;6208;48.956;9.076;2022-11-27T13:25:30;9.93;;;4.53;;
12290;SDS011;6208;48.956;9.076;2022-11-27T13:31:30;5.13;;;3.78;;
12290;SDS011;6208;48.956;9.076;2022-11-27T13:34:19;10.95;;;4.25;;
12290;SDS011;6208;48.956;9.076;2022-11-27T13:37:06;6.68;;;3.78;;
12290;SDS011;6208;48.956;9.076;2022-11-27T13:43:24;5.35;;;4.20;;
12290;SDS011;6208;48.956;9.076;2022-11-27T13:46:26;6.72;;;4.05;;
12290;SDS011;6208;48.956;9.076;2022-11-27T13:49:19;13.35;;;4.45;;
12290;SDS011;6208;48.956;9.076;2022-11-27T13:52:15;9.50;;;4.70;;
12290;SDS011;6208;48.956;9.076;2022-11-27T13:55:04;7.32;;;4.60;;
12290;SDS011;6208;48.956;9.076;2022-11-27T13:57:53;21.48;;;6.00;;
12290;SDS011;6208;48.956;9.076;2022-11-27T14:00:40;11.57;;;5.47;;
12290;SDS011;6208;48.956;9.076;2022-11-27T14:03:26;36.78;;;5.45;;
12290;SDS011;6208;48.956;9.076;2022-11-27T14:06:20;14.75;;;5.78;;
12290;SDS011;6208;48.956;9.076;2022-11-27T14:09:08;18.33;;;5.45;;
12290;SDS011;6208;48.956;9.076;2022-11-27T14:11:53;19.98;;;5.57;;
12290;SDS011;6208;48.956;9.076;2022-11-27T14:14:38;17.45;;;5.20;;
12290;SDS011;6208;48.956;9.076;2022-11-27T14:17:26;16.42;;;5.22;;
12290;SDS011;6208;48.956;9.076;2022-11-27T14:20:25;13.07;;;5.05;;
12290;SDS011;6208;48.956;9.076;2022-11-27T14:23:12;17.48;;;5.20;;
12290;SDS011;6208;48.956;9.076;2022-11-27T14:26:00;9.63;;;5.10;;
12290;SDS011;6208;48.956;9.076;2022-11-27T14:28:47;12.63;;;5.07;;
12290;SDS011;6208;48.956;9.076;2022-11-27T14:31:34;15.57;;;5.03;;
12290;SDS011;6208;48.956;9.076;2022-11-27T14:34:51;11.50;;;4.88;;
12290;SDS011;6208;48.956;9.076;2022-11-27T14:37:32;10.93;;;4.70;;
12290;SDS011;6208;48.956;9.076;2022-11-27T14:40:23;10.38;;;4.78;;
12290;SDS011;6208;48.956;9.076;2022-11-27T14:43:12;11.00;;;4.30;;
12290;SDS011;6208;48.956;9.076;2022-11-27T14:46:02;13.20;;;4.65;;
12290;SDS011;6208;48.956;9.076;2022-11-27T14:48:49;10.73;;;4.45;;
12290;SDS011;6208;48.956;9.076;2022-11-27T14:51:38;8.02;;;4.28;;
12290;SDS011;6208;48.956;9.076;2022-11-27T14:54:27;8.98;;;4.68;;
12290;SDS011;6208;48.956;9.076;2022-11-27T14:57:19;10.30;;;4.03;;
12290;SDS011;6208;48.956;9.076;2022-11-27T15:00:19;10.02;;;3.70;;
12290;SDS011;6208;48.956;9.076;2022-11-27T15:03:07;10.75;;;4.30;;
12290;SDS011;6208;48.956;9.076;2022-11-27T15:05:57;7.85;;;4.03;;
12290;SDS011;6208;48.956;9.076;2022-11-27T15:08:44;9.10;;;3.83;;
12290;SDS011;6208;48.956;9.076;2022-11-27T15:11:29;8.60;;;4.07;;
12290;SDS011;6208;48.956;9.076;2022-11-27T15:14:14;8.35;;;4.07;;
12290;SDS011;6208;48.956;9.076;2022-11-27T15:16:59;13.90;;;3.85;;
12290;SDS011;6208;48.956;9.076;2022-11-27T15:19:43;8.82;;;4.10;;
12290;SDS011;6208;48.956;9.076;2022-11-27T15:22:28;6.07;;;4.40;;
12290;SDS011;6208;48.956;9.076;2022-11-27T15:25:35;5.72;;;3.58;;
12290;SDS011;6208;48.956;9.076;2022-11-27T15:28:34;6.82;;;3.95;;
12290;SDS011;6208;48.956;9.076;2022-11-27T15:34:20;5.47;;;3.97;;
12290;SDS011;6208;48.956;9.076;2022-11-27T15:37:39;6.97;;;4.07;;
12290;SDS011;6208;48.956;9.076;2022-11-27T15:40:26;8.32;;;3.85;;
12290;SDS011;6208;48.956;9.076;2022-11-27T15:43:21;5.97;;;3.25;;
12290;SDS011;6208;48.956;9.076;2022-11-27T15:46:05;7.40;;;3.70;;
12290;SDS011;6208;48.956;9.076;2022-11-27T15:48:50;7.78;;;3.53;;
12290;SDS011;6208;48.956;9.076;2022-11-27T15:51:35;10.75;;;3.88;;
12290;SDS011;6208;48.956;9.076;2022-11-27T15:54:19;5.90;;;3.90;;
12290;SDS011;6208;48.956;9.076;2022-11-27T15:57:03;8.45;;;4.72;;
12290;SDS011;6208;48.956;9.076;2022-11-27T15:59:47;4.82;;;4.03;;
